createdAt,value
2017-11-14T00:01:01.924Z,3.27
2017-11-14T00:03:37.060Z,2.60
2017-11-14T00:06:11.957Z,2.60
2017-11-14T00:08:46.837Z,3.70
2017-11-14T00:11:22.041Z,2.80
2017-11-14T00:13:58.014Z,2.63
2017-11-14T00:16:33.082Z,2.70
2017-11-14T00:19:07.561Z,2.37
2017-11-14T00:21:42.084Z,2.90
2017-11-14T00:24:16.878Z,3.37
2017-11-14T00:26:51.560Z,2.47
2017-11-14T00:29:26.348Z,3.10
2017-11-14T00:32:01.068Z,2.53
2017-11-14T00:34:35.814Z,2.63
2017-11-14T00:37:11.381Z,3.33
2017-11-14T00:39:46.949Z,3.20
2017-11-14T00:42:21.853Z,2.90
2017-11-14T00:44:56.680Z,2.90
2017-11-14T00:47:31.413Z,2.77
2017-11-14T00:50:06.189Z,3.80
2017-11-14T00:52:41.148Z,3.30
2017-11-14T00:55:15.887Z,3.80
2017-11-14T00:57:50.625Z,3.47
2017-11-14T01:00:25.472Z,4.23
2017-11-14T01:03:00.209Z,3.23
2017-11-14T01:05:35.661Z,4.27
2017-11-14T01:08:10.413Z,3.43
2017-11-14T01:10:46.056Z,4.03
2017-11-14T01:13:20.964Z,3.30
2017-11-14T01:15:56.685Z,3.73
2017-11-14T01:18:32.353Z,3.27
2017-11-14T01:21:07.200Z,3.40
2017-11-14T01:23:42.361Z,3.67
2017-11-14T01:26:17.693Z,3.97
2017-11-14T01:28:52.836Z,4.00
2017-11-14T01:31:27.832Z,3.63
2017-11-14T01:34:02.901Z,2.83
2017-11-14T01:36:37.807Z,3.80
2017-11-14T01:39:12.492Z,3.37
2017-11-14T01:41:48.196Z,4.00
2017-11-14T01:44:23.234Z,3.70
2017-11-14T01:46:57.902Z,3.50
2017-11-14T01:49:33.547Z,3.77
2017-11-14T01:52:08.344Z,4.23
2017-11-14T01:54:43.891Z,3.30
2017-11-14T01:57:18.273Z,5.33
2017-11-14T01:59:53.012Z,4.67
2017-11-14T02:02:27.901Z,3.60
2017-11-14T02:05:02.810Z,3.07
2017-11-14T02:07:38.025Z,3.20
2017-11-14T02:10:12.652Z,3.23
2017-11-14T02:12:47.603Z,3.07
2017-11-14T02:15:22.001Z,2.80
2017-11-14T02:17:57.893Z,3.67
2017-11-14T02:20:33.188Z,3.80
2017-11-14T02:23:08.093Z,3.40
2017-11-14T02:25:42.810Z,3.00
2017-11-14T02:28:17.406Z,3.30
2017-11-14T02:30:51.600Z,3.60
2017-11-14T02:33:26.340Z,3.53
2017-11-14T02:36:00.431Z,3.40
2017-11-14T02:38:35.146Z,3.70
2017-11-14T02:41:10.035Z,3.47
2017-11-14T02:43:44.617Z,3.30
2017-11-14T02:46:19.566Z,3.20
2017-11-14T02:48:54.182Z,3.57
2017-11-14T02:51:28.848Z,3.90
2017-11-14T02:54:03.566Z,6.03
2017-11-14T02:56:38.605Z,4.40
2017-11-14T02:59:13.563Z,4.57
2017-11-14T03:01:48.371Z,4.10
2017-11-14T03:04:22.902Z,4.03
2017-11-14T03:06:57.640Z,4.00
2017-11-14T03:09:32.033Z,4.37
2017-11-14T03:12:06.629Z,3.97
2017-11-14T03:14:41.632Z,4.40
2017-11-14T03:17:15.869Z,3.70
2017-11-14T03:19:50.530Z,4.23
2017-11-14T03:22:25.708Z,5.03
2017-11-14T03:25:00.617Z,4.60
2017-11-14T03:27:35.325Z,4.50
2017-11-14T03:30:10.866Z,4.47
2017-11-14T03:32:45.937Z,4.90
2017-11-14T03:35:20.633Z,4.20
2017-11-14T03:37:55.436Z,5.17
2017-11-14T03:40:30.109Z,4.97
2017-11-14T03:43:04.945Z,5.00
2017-11-14T03:45:39.896Z,5.10
2017-11-14T03:48:14.273Z,5.13
2017-11-14T03:50:49.301Z,4.53
2017-11-14T03:53:24.228Z,5.27
2017-11-14T03:55:59.633Z,5.77
2017-11-14T03:58:35.056Z,5.47
2017-11-14T04:01:09.677Z,4.83
2017-11-14T04:03:44.709Z,5.30
2017-11-14T04:06:18.965Z,5.60
2017-11-14T04:08:53.817Z,5.97
2017-11-14T04:11:28.733Z,6.20
2017-11-14T04:14:03.237Z,5.73
2017-11-14T04:16:38.475Z,6.07
2017-11-14T04:19:13.257Z,6.43
2017-11-14T04:21:48.066Z,6.53
2017-11-14T04:24:23.980Z,6.43
2017-11-14T04:26:58.768Z,5.97
2017-11-14T04:29:33.761Z,5.13
2017-11-14T04:32:08.709Z,5.53
2017-11-14T04:34:43.517Z,5.20
2017-11-14T04:37:18.361Z,5.27
2017-11-14T04:39:53.127Z,5.93
2017-11-14T04:42:27.473Z,6.53
2017-11-14T04:45:02.457Z,6.27
2017-11-14T04:47:37.180Z,7.60
2017-11-14T04:50:12.017Z,9.07
2017-11-14T04:52:46.770Z,9.87
2017-11-14T04:55:21.696Z,9.80
2017-11-14T04:57:56.740Z,8.70
2017-11-14T05:00:32.548Z,7.40
2017-11-14T05:03:06.928Z,7.87
2017-11-14T05:05:41.904Z,7.97
2017-11-14T05:08:16.856Z,6.73
2017-11-14T05:10:51.354Z,7.40
2017-11-14T05:13:26.413Z,6.43
2017-11-14T05:16:01.144Z,6.03
2017-11-14T05:18:35.965Z,6.23
2017-11-14T05:21:10.199Z,7.43
2017-11-14T05:23:45.168Z,6.70
2017-11-14T05:26:20.058Z,5.40
2017-11-14T05:28:54.736Z,5.17
2017-11-14T05:31:29.533Z,5.10
2017-11-14T05:34:05.659Z,5.30
2017-11-14T05:36:40.097Z,5.10
2017-11-14T05:39:14.936Z,5.57
2017-11-14T05:41:49.857Z,4.60
2017-11-14T05:44:24.657Z,4.50
2017-11-14T05:46:59.328Z,6.30
2017-11-14T05:49:34.109Z,5.30
2017-11-14T05:52:08.961Z,9.57
2017-11-14T05:54:44.041Z,12.53
2017-11-14T05:57:18.848Z,12.37
2017-11-14T05:59:53.787Z,7.03
2017-11-14T06:02:28.906Z,4.60
2017-11-14T06:05:03.819Z,4.10
2017-11-14T06:07:38.780Z,5.60
2017-11-14T06:10:13.630Z,4.80
2017-11-14T06:12:49.281Z,4.50
2017-11-14T06:15:24.003Z,3.80
2017-11-14T06:17:58.841Z,4.23
2017-11-14T06:20:34.177Z,5.30
2017-11-14T06:23:08.928Z,5.43
2017-11-14T06:25:43.644Z,4.67
2017-11-14T06:28:18.456Z,5.10
2017-11-14T06:30:53.273Z,5.80
2017-11-14T06:33:28.313Z,5.70
2017-11-14T06:36:02.989Z,6.37
2017-11-14T06:38:37.178Z,6.80
2017-11-14T06:41:12.265Z,6.10
2017-11-14T06:43:46.998Z,5.83
2017-11-14T06:46:21.750Z,6.57
2017-11-14T06:48:57.057Z,6.90
2017-11-14T06:51:32.319Z,7.53
2017-11-14T06:54:07.021Z,7.30
2017-11-14T06:56:41.660Z,8.13
2017-11-14T06:59:16.421Z,9.83
2017-11-14T07:01:51.222Z,11.70
2017-11-14T07:04:26.009Z,11.80
2017-11-14T07:07:00.753Z,18.97
2017-11-14T07:09:35.261Z,14.53
2017-11-14T07:12:10.275Z,12.67
2017-11-14T07:14:44.876Z,11.10
2017-11-14T07:17:19.942Z,9.20
2017-11-14T07:19:55.238Z,9.63
2017-11-14T07:22:29.914Z,7.80
2017-11-14T07:25:04.581Z,8.20
2017-11-14T07:27:39.390Z,7.03
2017-11-14T07:30:14.490Z,8.53
2017-11-14T07:32:49.732Z,7.40
2017-11-14T07:35:24.985Z,5.67
2017-11-14T07:37:59.832Z,7.00
2017-11-14T07:40:34.573Z,6.97
2017-11-14T07:43:09.296Z,6.33
2017-11-14T07:45:44.033Z,7.00
2017-11-14T07:48:18.793Z,6.20
2017-11-14T07:50:53.463Z,7.40
2017-11-14T07:53:28.188Z,7.10
2017-11-14T07:56:03.979Z,7.33
2017-11-14T07:58:38.713Z,7.50
2017-11-14T08:01:13.557Z,6.90
2017-11-14T08:03:49.188Z,6.57
2017-11-14T08:06:24.369Z,7.70
2017-11-14T08:08:58.873Z,7.47
2017-11-14T08:11:33.841Z,7.93
2017-11-14T08:14:08.667Z,8.20
2017-11-14T08:16:44.144Z,7.93
2017-11-14T08:19:18.981Z,11.20
2017-11-14T08:21:53.545Z,10.97
2017-11-14T08:24:28.436Z,14.00
2017-11-14T08:27:03.246Z,12.27
2017-11-14T08:29:38.327Z,13.97
2017-11-14T08:32:13.418Z,15.60
2017-11-14T08:34:48.496Z,14.17
2017-11-14T08:37:23.249Z,12.67
2017-11-14T08:39:58.657Z,13.17
2017-11-14T08:42:33.654Z,12.13
2017-11-14T08:45:09.124Z,10.60
2017-11-14T08:47:43.933Z,10.80
2017-11-14T08:50:19.701Z,12.60
2017-11-14T08:52:54.573Z,13.70
2017-11-14T08:55:29.539Z,14.50
2017-11-14T08:58:03.970Z,12.00
2017-11-14T09:00:38.786Z,14.97
2017-11-14T09:03:13.577Z,13.50
2017-11-14T09:05:48.069Z,15.87
2017-11-14T09:08:22.872Z,15.77
2017-11-14T09:10:57.601Z,22.13
2017-11-14T09:13:32.321Z,17.70
2017-11-14T09:16:07.157Z,14.73
2017-11-14T09:18:41.809Z,19.37
2017-11-14T09:21:16.316Z,11.03
2017-11-14T09:23:51.157Z,11.50
2017-11-14T09:26:26.325Z,10.50
2017-11-14T09:29:00.845Z,11.30
2017-11-14T09:31:36.039Z,11.50
2017-11-14T09:34:10.553Z,10.60
2017-11-14T09:36:45.448Z,11.60
2017-11-14T09:39:20.057Z,12.40
2017-11-14T09:41:54.865Z,12.27
2017-11-14T09:44:29.890Z,12.43
2017-11-14T09:47:04.919Z,10.50
2017-11-14T09:49:39.670Z,12.03
2017-11-14T09:52:14.500Z,11.90
2017-11-14T09:54:49.237Z,12.17
2017-11-14T09:57:24.167Z,12.60
2017-11-14T09:59:58.900Z,9.57
2017-11-14T10:02:33.627Z,12.87
2017-11-14T10:05:08.366Z,12.90
2017-11-14T10:07:43.183Z,12.67
2017-11-14T10:10:17.997Z,12.53
2017-11-14T10:12:52.797Z,14.40
2017-11-14T10:15:27.752Z,16.57
2017-11-14T10:18:02.490Z,17.30
2017-11-14T10:20:37.401Z,19.60
2017-11-14T10:23:12.090Z,21.30
2017-11-14T10:25:46.941Z,18.17
2017-11-14T10:28:21.708Z,16.43
2017-11-14T10:30:56.521Z,10.53
2017-11-14T10:33:31.473Z,14.57
2017-11-14T10:36:06.297Z,15.03
2017-11-14T10:38:41.161Z,11.43
2017-11-14T10:41:15.911Z,14.70
2017-11-14T10:43:50.506Z,17.67
2017-11-14T10:46:25.716Z,16.63
2017-11-14T10:49:00.568Z,21.07
2017-11-14T10:51:35.661Z,13.97
2017-11-14T10:54:10.611Z,16.43
2017-11-14T10:56:45.729Z,18.97
2017-11-14T10:59:20.720Z,17.40
2017-11-14T11:01:55.405Z,19.07
2017-11-14T11:04:30.251Z,18.47
2017-11-14T11:07:04.993Z,17.67
2017-11-14T11:09:39.859Z,17.63
2017-11-14T11:12:14.637Z,9.97
2017-11-14T11:14:49.609Z,13.70
2017-11-14T11:17:24.477Z,13.50
2017-11-14T11:19:59.346Z,14.80
2017-11-14T11:22:34.097Z,13.20
2017-11-14T11:25:08.650Z,13.27
2017-11-14T11:27:43.565Z,16.10
2017-11-14T11:30:18.405Z,16.70
2017-11-14T11:32:53.254Z,13.90
2017-11-14T11:35:27.937Z,12.03
2017-11-14T11:38:02.854Z,10.50
2017-11-14T11:40:37.795Z,11.27
2017-11-14T11:43:12.855Z,7.07
2017-11-14T11:45:48.469Z,7.00
2017-11-14T11:48:23.192Z,7.63
2017-11-14T11:50:58.040Z,7.70
2017-11-14T11:53:32.616Z,7.40
2017-11-14T11:56:07.516Z,6.20
2017-11-14T11:58:42.114Z,7.67
2017-11-14T12:01:16.957Z,7.77
2017-11-14T12:03:51.848Z,8.57
2017-11-14T12:06:26.821Z,6.73
2017-11-14T12:09:03.028Z,7.70
2017-11-14T12:11:37.433Z,7.67
2017-11-14T12:14:12.566Z,7.83
2017-11-14T12:16:47.460Z,7.03
2017-11-14T12:19:21.984Z,6.80
2017-11-14T12:21:56.688Z,7.03
2017-11-14T12:24:31.460Z,6.00
2017-11-14T12:27:06.077Z,4.97
2017-11-14T12:29:40.690Z,5.20
2017-11-14T12:32:15.313Z,4.10
2017-11-14T12:34:49.946Z,4.97
2017-11-14T12:37:24.688Z,4.60
2017-11-14T12:39:59.864Z,5.03
2017-11-14T12:42:34.704Z,4.70
2017-11-14T12:45:09.616Z,5.10
2017-11-14T12:47:44.637Z,4.83
2017-11-14T12:50:19.440Z,5.40
2017-11-14T12:52:54.298Z,4.33
2017-11-14T12:55:28.612Z,5.87
2017-11-14T12:58:03.664Z,4.70
2017-11-14T13:00:38.349Z,3.77
2017-11-14T13:03:12.809Z,5.90
2017-11-14T13:05:47.311Z,5.03
2017-11-14T13:08:22.654Z,4.20
2017-11-14T13:10:57.198Z,4.47
2017-11-14T13:13:31.915Z,4.03
2017-11-14T13:16:06.849Z,3.70
2017-11-14T13:18:41.405Z,4.13
2017-11-14T13:21:15.808Z,4.73
2017-11-14T13:23:50.705Z,4.00
2017-11-14T13:26:25.388Z,4.40
2017-11-14T13:29:00.965Z,5.20
2017-11-14T13:31:35.548Z,4.63
2017-11-14T13:34:10.517Z,5.20
2017-11-14T13:36:45.778Z,7.20
2017-11-14T13:39:20.651Z,8.00
2017-11-14T13:41:55.559Z,8.70
2017-11-14T13:44:30.649Z,7.90
2017-11-14T13:47:04.945Z,9.17
2017-11-14T13:49:40.353Z,8.93
2017-11-14T13:52:15.405Z,10.70
2017-11-14T13:54:50.449Z,11.07
2017-11-14T13:57:25.284Z,10.23
2017-11-14T14:00:00.283Z,8.77
2017-11-14T14:02:35.361Z,7.03
2017-11-14T14:05:09.881Z,7.83
2017-11-14T14:07:45.245Z,6.63
2017-11-14T14:10:20.145Z,8.37
2017-11-14T14:12:54.995Z,7.83
2017-11-14T14:15:29.901Z,9.63
2017-11-14T14:18:04.105Z,10.20
2017-11-14T14:20:38.630Z,8.93
2017-11-14T14:23:13.617Z,8.40
2017-11-14T14:25:48.713Z,9.70
2017-11-14T14:28:23.172Z,9.10
2017-11-14T14:30:58.377Z,6.50
2017-11-14T14:33:33.630Z,7.03
2017-11-14T14:36:08.553Z,7.40
2017-11-14T14:38:42.769Z,7.17
2017-11-14T14:41:17.736Z,5.10
2017-11-14T14:43:52.692Z,5.67
2017-11-14T14:46:27.413Z,5.33
2017-11-14T14:49:02.325Z,4.97
2017-11-14T14:51:37.188Z,5.60
2017-11-14T14:54:11.965Z,5.60
2017-11-14T14:56:46.612Z,7.10
2017-11-14T14:59:21.538Z,4.00
2017-11-14T15:01:56.344Z,5.10
2017-11-14T15:04:31.164Z,4.50
2017-11-14T15:07:06.157Z,4.80
2017-11-14T15:09:40.821Z,4.70
2017-11-14T15:12:15.940Z,5.50
2017-11-14T15:14:50.761Z,6.00
2017-11-14T15:17:25.851Z,4.90
2017-11-14T15:20:00.612Z,4.90
2017-11-14T15:22:35.548Z,6.00
2017-11-14T15:25:10.525Z,5.20
2017-11-14T15:27:45.382Z,5.23
2017-11-14T15:30:19.770Z,5.60
2017-11-14T15:32:55.141Z,6.40
2017-11-14T15:35:29.986Z,5.47
2017-11-14T15:38:04.513Z,5.93
2017-11-14T15:40:40.033Z,6.83
2017-11-14T15:43:15.053Z,6.90
2017-11-14T15:45:50.039Z,7.17
2017-11-14T15:48:24.381Z,7.23
2017-11-14T15:50:59.310Z,6.93
2017-11-14T15:53:34.240Z,6.90
2017-11-14T15:56:09.037Z,6.47
2017-11-14T15:58:43.540Z,15.10
2017-11-14T16:01:18.592Z,9.43
2017-11-14T16:03:53.245Z,6.80
2017-11-14T16:06:28.049Z,8.57
2017-11-14T16:09:02.902Z,8.20
2017-11-14T16:11:38.114Z,9.90
2017-11-14T16:14:12.412Z,10.07
2017-11-14T16:16:47.284Z,8.37
2017-11-14T16:19:22.448Z,9.70
2017-11-14T16:21:57.024Z,10.73
2017-11-14T16:24:32.183Z,11.47
2017-11-14T16:27:07.005Z,10.80
2017-11-14T16:29:41.651Z,11.13
2017-11-14T16:32:16.765Z,12.33
2017-11-14T16:34:51.272Z,10.33
2017-11-14T16:37:26.676Z,14.87
2017-11-14T16:40:01.582Z,13.27
2017-11-14T16:42:36.397Z,13.40
2017-11-14T16:45:11.061Z,11.47
2017-11-14T16:47:45.674Z,14.40
2017-11-14T16:50:20.561Z,13.10
2017-11-14T16:52:57.891Z,14.07
2017-11-14T16:55:32.741Z,14.47
2017-11-14T16:58:07.840Z,13.33
2017-11-14T17:00:42.570Z,14.27
2017-11-14T17:03:17.253Z,13.00
2017-11-14T17:05:51.813Z,14.00
2017-11-14T17:08:26.980Z,12.70
2017-11-14T17:11:01.762Z,10.60
2017-11-14T17:13:36.965Z,14.03
2017-11-14T17:16:11.353Z,14.50
2017-11-14T17:18:46.148Z,12.60
2017-11-14T17:21:21.268Z,14.00
2017-11-14T17:23:56.301Z,15.10
2017-11-14T17:26:31.641Z,15.47
2017-11-14T17:29:06.856Z,16.10
2017-11-14T17:31:41.773Z,12.60
2017-11-14T17:34:16.746Z,13.50
2017-11-14T17:36:51.562Z,16.43
2017-11-14T17:39:26.490Z,17.00
2017-11-14T17:42:01.521Z,16.77
2017-11-14T17:44:36.533Z,16.70
2017-11-14T17:47:12.120Z,15.70
2017-11-14T17:49:47.162Z,17.70
2017-11-14T17:52:22.376Z,15.73
2017-11-14T17:54:57.345Z,16.27
2017-11-14T17:57:32.391Z,17.40
2017-11-14T18:00:07.216Z,15.20
2017-11-14T18:02:42.492Z,13.37
2017-11-14T18:05:17.770Z,15.97
2017-11-14T18:07:53.096Z,15.57
2017-11-14T18:10:28.184Z,15.60
2017-11-14T18:13:03.341Z,17.20
2017-11-14T18:15:38.008Z,13.90
2017-11-14T18:18:13.449Z,17.50
2017-11-14T18:20:48.625Z,18.17
2017-11-14T18:23:23.542Z,17.00
2017-11-14T18:25:58.268Z,16.40
2017-11-14T18:28:33.254Z,17.33
2017-11-14T18:31:08.266Z,18.07
2017-11-14T18:33:43.296Z,18.67
2017-11-14T18:36:18.417Z,17.80
2017-11-14T18:38:53.741Z,17.77
2017-11-14T18:41:28.688Z,20.90
2017-11-14T18:44:03.896Z,19.43
2017-11-14T18:46:38.732Z,21.00
2017-11-14T18:49:13.505Z,18.43
2017-11-14T18:51:48.308Z,19.80
2017-11-14T18:54:23.478Z,20.43
2017-11-14T18:56:58.973Z,20.97
2017-11-14T18:59:33.764Z,21.00
2017-11-14T19:05:05.485Z,21.57
2017-11-14T19:07:40.553Z,22.10
2017-11-14T19:10:15.602Z,21.10
2017-11-14T19:12:50.535Z,22.00
2017-11-14T19:15:25.868Z,22.13
2017-11-14T19:18:00.324Z,22.83
2017-11-14T19:20:35.165Z,20.90
2017-11-14T19:23:10.355Z,22.53
2017-11-14T19:25:45.464Z,24.40
2017-11-14T19:28:20.633Z,21.67
2017-11-14T19:30:55.620Z,23.37
2017-11-14T19:33:30.580Z,22.17
2017-11-14T19:36:05.527Z,23.83
2017-11-14T19:38:40.565Z,22.40
2017-11-14T19:41:15.508Z,25.80
2017-11-14T19:43:50.444Z,23.50
2017-11-14T19:46:25.368Z,22.73
2017-11-14T19:49:00.085Z,26.50
2017-11-14T19:51:34.952Z,25.60
2017-11-14T19:54:10.169Z,25.60
2017-11-14T19:56:44.809Z,25.27
2017-11-14T19:59:19.825Z,25.50
2017-11-14T20:01:54.769Z,25.80
2017-11-14T20:04:29.603Z,25.90
2017-11-14T20:07:04.553Z,25.00
2017-11-14T20:09:39.496Z,20.93
2017-11-14T20:12:14.119Z,24.40
2017-11-14T20:14:48.681Z,25.57
2017-11-14T20:17:23.745Z,27.60
2017-11-14T20:19:58.457Z,25.57
2017-11-14T20:22:33.169Z,27.23
2017-11-14T20:25:07.838Z,25.17
2017-11-14T20:27:42.813Z,27.50
2017-11-14T20:30:18.242Z,24.50
2017-11-14T20:32:53.743Z,24.63
2017-11-14T20:35:28.618Z,24.90
2017-11-14T20:38:03.761Z,26.50
2017-11-14T20:40:38.987Z,23.37
2017-11-14T20:43:13.816Z,24.97
2017-11-14T20:45:48.938Z,27.00
2017-11-14T20:48:23.749Z,25.60
2017-11-14T20:50:58.533Z,26.53
2017-11-14T20:53:33.554Z,26.43
2017-11-14T20:56:08.377Z,23.90
2017-11-14T20:58:43.320Z,27.53
2017-11-14T21:01:18.389Z,28.77
2017-11-14T21:03:53.193Z,25.50
2017-11-14T21:06:28.177Z,26.60
2017-11-14T21:09:02.961Z,24.33
2017-11-14T21:11:37.968Z,28.17
2017-11-14T21:14:12.885Z,26.73
2017-11-14T21:16:48.068Z,28.37
2017-11-14T21:19:22.981Z,26.60
2017-11-14T21:21:57.778Z,26.93
2017-11-14T21:24:32.125Z,27.07
2017-11-14T21:27:06.905Z,27.67
2017-11-14T21:29:41.897Z,26.03
2017-11-14T21:32:16.858Z,25.67
2017-11-14T21:34:51.784Z,26.40
2017-11-14T21:37:26.633Z,24.07
2017-11-14T21:40:01.828Z,27.83
2017-11-14T21:42:36.513Z,27.30
2017-11-14T21:45:11.591Z,27.13
2017-11-14T21:47:46.585Z,23.40
2017-11-14T21:50:21.577Z,28.73
2017-11-14T21:52:56.460Z,27.17
2017-11-14T21:55:31.250Z,26.73
2017-11-14T21:58:06.045Z,27.97
2017-11-14T22:00:40.605Z,27.27
2017-11-14T22:03:15.855Z,27.50
2017-11-14T22:05:50.788Z,26.60
2017-11-14T22:08:25.606Z,25.10
2017-11-14T22:11:00.524Z,27.40
2017-11-14T22:13:35.365Z,26.87
2017-11-14T22:16:10.209Z,23.53
2017-11-14T22:18:45.147Z,27.90
2017-11-14T22:21:20.183Z,28.20
2017-11-14T22:23:55.105Z,27.67
2017-11-14T22:26:29.989Z,26.50
2017-11-14T22:29:05.076Z,25.97
2017-11-14T22:31:39.896Z,26.47
2017-11-14T22:34:14.696Z,27.50
2017-11-14T22:36:50.049Z,27.87
2017-11-14T22:39:24.469Z,25.73
2017-11-14T22:41:59.144Z,26.40
2017-11-14T22:44:34.381Z,25.93
2017-11-14T22:47:09.315Z,25.03
2017-11-14T22:49:44.345Z,27.07
2017-11-14T22:52:19.168Z,25.97
2017-11-14T22:54:54.194Z,26.80
2017-11-14T22:57:28.878Z,26.70
2017-11-14T23:00:03.344Z,27.13
2017-11-14T23:02:38.460Z,25.80
2017-11-14T23:05:13.534Z,25.23
2017-11-14T23:07:48.453Z,26.70
2017-11-14T23:10:23.284Z,26.90
2017-11-14T23:12:58.353Z,25.07
2017-11-14T23:15:33.198Z,26.10
2017-11-14T23:18:08.190Z,26.60
2017-11-14T23:20:43.101Z,25.37
2017-11-14T23:23:17.866Z,24.80
2017-11-14T23:25:52.617Z,24.37
2017-11-14T23:28:27.429Z,24.10
2017-11-14T23:31:02.229Z,25.23
2017-11-14T23:33:37.289Z,23.90
2017-11-14T23:36:12.186Z,25.57
2017-11-14T23:38:47.220Z,24.13
2017-11-14T23:41:21.645Z,24.73
2017-11-14T23:43:56.377Z,23.00
2017-11-14T23:46:31.355Z,23.57
2017-11-14T23:49:06.354Z,23.80
2017-11-14T23:51:41.502Z,24.40
2017-11-14T23:54:16.861Z,23.13
2017-11-14T23:56:51.568Z,22.97
2017-11-14T23:59:26.510Z,22.93
